KJFX Airport (Walker County-Bevill Field) Information

FAA: JFX - ICAO: KJFX

KJFX Airport Location

State Alabama
County Walker
City Jasper
KJFX Airport is 5 miles northwest of Jasper, AL.
Latitude 33-54-07.2000N
Longitude 087-18-49.8000W
Elevation 482ft

KJFX Airport METARs

METAR KJFX 251735Z AUTO 25006KT 9SM BKN009 OVC013 22/20 A2988 RMK AO2 PWINO
Altimeter 29.88"
Temperature 22.0°C (71.6°F)
Wind 250° at 6KT
Clouds broken at 900ft overcast at 1,300ft
Visibility 9.0mi
Time observed: 2021-10-25T17:35:00Z

KJFX Airport Details

Status Operational
Activation N/A
Ownership Public
Usage Public
Chart ATLANTA
ATC on-site No
Beacon schedule sunset-sunrise
Beacon color clear green

KJFX Airport Contacts

Owner WALKER COUNTY COMMISSION
Owner address P.O. BOX 1447, JASPER, AL 35501
Owner phone 205-384-7230
Manager NOEL BLEVINS
Manager address SANDERS AVIATION, INC, JASPER, AL 35501
Manager phone (205) 648-5518

KJFX Airport (Walker County-Bevill Field) Radio Frequencies

KJFX (Airport) Radio Frequencies

UNICOM 122.7
Common traffic advisory frequency (CTAF) 122.7